createdAt,value
2023-02-19T00:00:15.705Z,99627.83
2023-02-19T00:04:07.510Z,99617.02
2023-02-19T00:08:10.862Z,99615.86
2023-02-19T00:12:10.293Z,99617.36
2023-02-19T00:16:08.363Z,99614.05
2023-02-19T00:20:04.277Z,99609.11
2023-02-19T00:24:00.166Z,99603.13
2023-02-19T00:27:59.936Z,99593.77
2023-02-19T00:31:58.307Z,99595.11
2023-02-19T00:35:54.396Z,99594.94
2023-02-19T00:39:50.521Z,99605.70
2023-02-19T00:43:48.015Z,99610.16
2023-02-19T00:47:48.280Z,99608.32
2023-02-19T00:51:42.903Z,99618.64
2023-02-19T00:55:46.250Z,99621.05
2023-02-19T00:59:42.390Z,99619.26
2023-02-19T01:03:40.353Z,99609.71
2023-02-19T01:07:40.393Z,99604.84
2023-02-19T01:11:37.627Z,99609.41
2023-02-19T01:15:35.771Z,99610.75
2023-02-19T01:19:32.598Z,99610.09
2023-02-19T01:23:29.874Z,99618.02
2023-02-19T01:27:29.205Z,99620.64
2023-02-19T01:31:25.497Z,99625.08
2023-02-19T01:35:23.546Z,99628.69
2023-02-19T01:39:21.379Z,99630.20
2023-02-19T01:43:16.975Z,99628.73
2023-02-19T01:47:14.467Z,99631.34
2023-02-19T01:51:13.944Z,99633.50
2023-02-19T01:55:09.484Z,99637.37
2023-02-19T01:59:09.070Z,99645.84
2023-02-19T02:03:07.262Z,99653.70
2023-02-19T02:07:05.443Z,99661.52
2023-02-19T02:11:03.240Z,99660.45
2023-02-19T02:15:02.062Z,99658.11
2023-02-19T02:18:59.858Z,99665.02
2023-02-19T02:22:57.088Z,99663.63
2023-02-19T02:26:55.033Z,99671.06
2023-02-19T02:30:54.563Z,99679.65
2023-02-19T02:34:54.413Z,99687.48
2023-02-19T02:38:52.578Z,99683.98
2023-02-19T02:42:48.638Z,99683.93
2023-02-19T02:46:48.596Z,99694.76
2023-02-19T02:50:46.600Z,99698.70
2023-02-19T02:54:43.682Z,99694.80
2023-02-19T02:58:45.260Z,99702.90
2023-02-19T03:02:41.477Z,99710.55
2023-02-19T03:06:41.556Z,99721.14
2023-02-19T03:10:41.758Z,99721.24
2023-02-19T03:14:42.167Z,99727.44
2023-02-19T03:18:38.817Z,99736.08
2023-02-19T03:22:36.320Z,99740.80
2023-02-19T03:26:35.810Z,99742.70
2023-02-19T03:30:32.667Z,99740.16
2023-02-19T03:34:30.574Z,99746.17
2023-02-19T03:38:28.726Z,99744.77
2023-02-19T03:42:27.248Z,99741.61
2023-02-19T03:46:25.986Z,99744.59
2023-02-19T03:50:24.635Z,99743.30
2023-02-19T03:54:20.930Z,99743.69
2023-02-19T03:58:18.708Z,99741.83
2023-02-19T04:02:18.955Z,99743.30
2023-02-19T04:06:12.741Z,99748.23
2023-02-19T04:10:08.955Z,99755.45
2023-02-19T04:14:09.344Z,99761.80
2023-02-19T04:18:06.705Z,99757.96
2023-02-19T04:22:04.412Z,99752.91
2023-02-19T04:26:03.011Z,99755.40
2023-02-19T04:30:00.876Z,99756.65
2023-02-19T04:33:58.670Z,99761.21
2023-02-19T04:37:56.928Z,99776.69
2023-02-19T04:41:58.420Z,99789.91
2023-02-19T04:45:54.561Z,99788.86
2023-02-19T04:49:52.891Z,99788.73
2023-02-19T04:53:49.381Z,99795.32
2023-02-19T04:57:44.950Z,99798.02
2023-02-19T05:01:42.500Z,99797.92
2023-02-19T05:05:42.383Z,99778.95
2023-02-19T05:09:45.859Z,99786.08
2023-02-19T05:13:41.388Z,99786.42
2023-02-19T05:17:41.462Z,99791.55
2023-02-19T05:21:37.726Z,99804.58
2023-02-19T05:25:35.639Z,99803.30
2023-02-19T05:29:33.690Z,99818.17
2023-02-19T05:33:33.409Z,99810.57
2023-02-19T05:37:29.013Z,99820.34
2023-02-19T05:41:27.094Z,99834.32
2023-02-19T05:45:27.017Z,99825.45
2023-02-19T05:49:23.867Z,99829.52
2023-02-19T05:53:23.050Z,99830.60
2023-02-19T05:57:22.270Z,99830.44
2023-02-19T06:01:24.030Z,99827.30
2023-02-19T06:05:23.432Z,99829.40
2023-02-19T06:09:23.476Z,99829.04
2023-02-19T06:13:24.827Z,99838.17
2023-02-19T06:17:25.010Z,99841.89
2023-02-19T06:21:25.281Z,99843.84
2023-02-19T06:25:20.918Z,99846.15
2023-02-19T06:29:20.876Z,99845.38
2023-02-19T06:33:16.088Z,99848.10
2023-02-19T06:37:14.371Z,99852.67
2023-02-19T06:41:12.562Z,99856.58
2023-02-19T06:45:12.529Z,99866.16
2023-02-19T06:49:10.075Z,99867.40
2023-02-19T06:53:07.093Z,99874.66
2023-02-19T06:57:05.119Z,99879.70
2023-02-19T07:01:02.138Z,99878.67
2023-02-19T07:04:59.422Z,99875.96
2023-02-19T07:08:59.614Z,99872.23
2023-02-19T07:12:57.738Z,99875.84
2023-02-19T07:17:01.072Z,99875.92
2023-02-19T07:21:00.728Z,99866.67
2023-02-19T07:24:59.156Z,99868.29
2023-02-19T07:29:00.096Z,99877.06
2023-02-19T07:32:59.127Z,99879.33
2023-02-19T07:36:58.869Z,99873.98
2023-02-19T07:40:59.284Z,99880.73
2023-02-19T07:45:00.700Z,99877.58
2023-02-19T07:49:00.114Z,99877.45
2023-02-19T07:52:58.326Z,99878.81
2023-02-19T07:56:55.630Z,99876.98
2023-02-19T08:00:56.315Z,99876.60
2023-02-19T08:05:00.458Z,99878.25
2023-02-19T08:09:01.671Z,99890.35
2023-02-19T08:13:01.333Z,99889.68
2023-02-19T08:16:59.037Z,99888.89
2023-02-19T08:20:58.783Z,99885.95
2023-02-19T08:24:56.162Z,99886.80
2023-02-19T08:28:54.439Z,99874.50
2023-02-19T08:32:54.375Z,99875.36
2023-02-19T08:36:56.146Z,99880.80
2023-02-19T08:40:54.416Z,99881.98
2023-02-19T08:44:54.499Z,99883.69
2023-02-19T08:48:54.416Z,99887.96
2023-02-19T08:52:52.450Z,99892.11
2023-02-19T08:56:52.411Z,99893.48
2023-02-19T09:00:52.415Z,99892.30
2023-02-19T09:04:53.404Z,99885.30
2023-02-19T09:08:51.413Z,99880.21
2023-02-19T09:12:38.236Z,99879.63
2023-02-19T09:16:23.823Z,99884.54
2023-02-19T09:20:09.334Z,99881.83
2023-02-19T09:23:54.858Z,99873.88
2023-02-19T09:27:40.314Z,99870.13
2023-02-19T09:31:27.147Z,99868.52
2023-02-19T09:35:12.589Z,99858.01
2023-02-19T09:38:59.345Z,99855.13
2023-02-19T09:42:45.038Z,99857.29
2023-02-19T09:46:30.642Z,99852.60
2023-02-19T09:50:16.572Z,99847.51
2023-02-19T09:54:02.073Z,99846.21
2023-02-19T09:57:48.544Z,99843.10
2023-02-19T10:01:41.047Z,99846.52
2023-02-19T10:05:33.519Z,99845.41
2023-02-19T10:09:37.510Z,99846.34
2023-02-19T10:13:38.279Z,99829.55
2023-02-19T10:17:36.362Z,99833.23
2023-02-19T10:21:34.560Z,99833.13
2023-02-19T10:25:19.744Z,99832.38
2023-02-19T10:29:09.205Z,99818.63
2023-02-19T10:32:56.840Z,99807.43
2023-02-19T10:36:42.685Z,99803.14
2023-02-19T10:40:28.539Z,99805.83
2023-02-19T10:44:13.810Z,99806.86
2023-02-19T10:47:59.244Z,99811.36
2023-02-19T10:51:44.934Z,99806.34
2023-02-19T10:55:38.043Z,99780.30
2023-02-19T10:59:31.939Z,99771.52
2023-02-19T11:03:04.343Z,99762.83
2023-02-19T11:06:56.362Z,99760.92
2023-02-19T11:10:50.973Z,99772.73
2023-02-19T11:14:49.244Z,99770.98
2023-02-19T11:18:47.293Z,99792.49
2023-02-19T11:22:47.045Z,99795.80
2023-02-19T11:26:45.722Z,99793.09
2023-02-19T11:30:43.630Z,99786.45
2023-02-19T11:34:40.906Z,99783.58
2023-02-19T11:38:38.853Z,99779.29
2023-02-19T11:42:36.369Z,99773.10
2023-02-19T11:46:32.881Z,99761.86
2023-02-19T11:50:18.412Z,99750.79
2023-02-19T11:54:06.852Z,99755.73
2023-02-19T11:57:58.524Z,99759.23
2023-02-19T12:01:43.625Z,99767.83
2023-02-19T12:05:47.598Z,99768.70
2023-02-19T12:09:26.693Z,99784.61
2023-02-19T12:13:25.785Z,99801.23
2023-02-19T12:17:27.744Z,99805.71
2023-02-19T12:21:29.706Z,99808.73
2023-02-19T12:25:29.739Z,99805.23
2023-02-19T12:29:28.571Z,99805.02
2023-02-19T12:33:30.333Z,99814.16
2023-02-19T12:37:30.600Z,99816.05
2023-02-19T12:41:32.777Z,99810.34
2023-02-19T12:45:30.745Z,99806.30
2023-02-19T12:49:28.700Z,99807.13
2023-02-19T12:53:29.902Z,99808.62
2023-02-19T12:57:30.307Z,99795.35
2023-02-19T13:01:30.603Z,99792.00
2023-02-19T13:05:28.853Z,99791.17
2023-02-19T13:09:31.862Z,99792.77
2023-02-19T13:13:31.909Z,99802.94
2023-02-19T13:17:32.767Z,99797.21
2023-02-19T13:21:32.808Z,99797.65
2023-02-19T13:25:32.859Z,99805.51
2023-02-19T13:29:34.878Z,99798.25
2023-02-19T13:33:35.773Z,99801.38
2023-02-19T13:37:34.801Z,99802.06
2023-02-19T13:41:32.640Z,99804.41
2023-02-19T13:45:32.761Z,99808.57
2023-02-19T13:49:30.939Z,99803.77
2023-02-19T13:53:31.215Z,99809.88
2023-02-19T13:57:30.777Z,99812.77
2023-02-19T14:01:30.926Z,99808.92
2023-02-19T14:05:31.874Z,99812.20
2023-02-19T14:09:30.125Z,99806.62
2023-02-19T14:13:28.577Z,99796.06
2023-02-19T14:17:26.964Z,99800.17
2023-02-19T14:21:27.235Z,99791.69
2023-02-19T14:25:27.374Z,99790.96
2023-02-19T14:29:27.383Z,99794.50
2023-02-19T14:33:27.368Z,99787.85
2023-02-19T14:37:24.596Z,99788.81
2023-02-19T14:41:22.916Z,99786.30
2023-02-19T14:45:23.332Z,99782.98
2023-02-19T14:49:21.923Z,99781.49
2023-02-19T14:53:21.731Z,99778.95
2023-02-19T14:57:21.248Z,99781.05
2023-02-19T15:01:19.420Z,99779.52
2023-02-19T15:05:17.788Z,99780.73
2023-02-19T15:09:16.672Z,99780.00
2023-02-19T15:13:16.801Z,99778.38
2023-02-19T15:17:17.008Z,99781.90
2023-02-19T15:21:17.518Z,99783.05
2023-02-19T15:25:16.353Z,99789.15
2023-02-19T15:29:14.613Z,99794.73
2023-02-19T15:33:14.146Z,99793.14
2023-02-19T15:37:14.433Z,99796.30
2023-02-19T15:41:14.614Z,99800.48
2023-02-19T15:45:12.491Z,99803.34
2023-02-19T15:49:10.449Z,99806.77
2023-02-19T15:53:10.658Z,99806.54
2023-02-19T15:57:10.821Z,99811.38
2023-02-19T16:01:09.819Z,99818.35
2023-02-19T16:05:07.968Z,99826.89
2023-02-19T16:09:06.028Z,99831.91
2023-02-19T16:12:57.810Z,99836.15
2023-02-19T16:16:49.849Z,99836.86
2023-02-19T16:20:43.241Z,99842.29
2023-02-19T16:24:37.868Z,99845.82
2023-02-19T16:28:30.648Z,99843.70
2023-02-19T16:32:25.213Z,99850.66
2023-02-19T16:36:19.262Z,99851.10
2023-02-19T16:40:04.888Z,99858.09
2023-02-19T16:43:50.514Z,99859.30
2023-02-19T16:47:44.617Z,99862.17
2023-02-19T16:51:39.071Z,99862.01
2023-02-19T16:55:33.137Z,99862.70
2023-02-19T16:59:27.063Z,99859.21
2023-02-19T17:03:19.423Z,99855.69
2023-02-19T17:07:13.533Z,99853.56
2023-02-19T17:11:07.747Z,99853.45
2023-02-19T17:15:00.336Z,99856.89
2023-02-19T17:18:52.095Z,99852.95
2023-02-19T17:22:46.411Z,99854.80
2023-02-19T17:26:38.180Z,99858.30
2023-02-19T17:30:33.796Z,99856.45
2023-02-19T17:34:26.006Z,99851.80
2023-02-19T17:38:18.185Z,99853.08
2023-02-19T17:42:11.963Z,99855.52
2023-02-19T17:46:05.481Z,99855.55
2023-02-19T17:49:58.983Z,99854.55
2023-02-19T17:53:51.027Z,99849.75
2023-02-19T17:57:43.205Z,99844.78
2023-02-19T18:01:34.819Z,99846.73
2023-02-19T18:05:27.112Z,99845.64
2023-02-19T18:09:24.799Z,99841.75
2023-02-19T18:13:17.463Z,99842.78
2023-02-19T18:17:12.206Z,99848.67
2023-02-19T18:21:03.965Z,99847.79
2023-02-19T18:24:59.845Z,99849.11
2023-02-19T18:28:53.224Z,99847.95
2023-02-19T18:32:45.319Z,99849.73
2023-02-19T18:36:41.586Z,99842.06
2023-02-19T18:40:15.028Z,99835.45
2023-02-19T18:44:07.517Z,99836.15
2023-02-19T18:48:03.777Z,99838.31
2023-02-19T18:51:37.536Z,99839.94
2023-02-19T18:55:31.238Z,99845.98
2023-02-19T18:59:27.330Z,99848.66
2023-02-19T19:03:21.471Z,99846.06
2023-02-19T19:07:13.408Z,99847.00
2023-02-19T19:11:07.402Z,99851.64
2023-02-19T19:14:59.275Z,99854.59
2023-02-19T19:18:52.156Z,99854.60
2023-02-19T19:22:44.418Z,99854.27
2023-02-19T19:26:39.434Z,99851.11
2023-02-19T19:30:32.087Z,99851.52
2023-02-19T19:34:26.509Z,99850.97
2023-02-19T19:38:23.261Z,99849.69
2023-02-19T19:42:16.753Z,99844.95
2023-02-19T19:46:09.147Z,99846.80
2023-02-19T19:50:03.816Z,99847.94
2023-02-19T19:53:56.264Z,99860.98
2023-02-19T19:57:48.178Z,99868.79
2023-02-19T20:01:42.475Z,99881.30
2023-02-19T20:05:47.467Z,99881.84
2023-02-19T20:09:49.626Z,99886.07
2023-02-19T20:13:52.141Z,99887.50
2023-02-19T20:17:54.486Z,99898.65
2023-02-19T20:21:56.588Z,99903.50
2023-02-19T20:25:54.688Z,99905.39
2023-02-19T20:29:56.996Z,99913.83
2023-02-19T20:33:55.515Z,99920.02
2023-02-19T20:37:57.826Z,99926.33
2023-02-19T20:41:55.525Z,99928.83
2023-02-19T20:45:57.496Z,99931.65
2023-02-19T20:49:55.840Z,99936.97
2023-02-19T20:53:58.578Z,99947.21
2023-02-19T20:57:56.553Z,99949.46
2023-02-19T21:01:59.081Z,99956.52
2023-02-19T21:05:57.682Z,99959.71
2023-02-19T21:10:00.867Z,99963.17
2023-02-19T21:14:00.619Z,99964.27
2023-02-19T21:18:02.129Z,99970.80
2023-02-19T21:22:00.478Z,99969.02
2023-02-19T21:26:03.140Z,99978.73
2023-02-19T21:30:01.576Z,99979.59
2023-02-19T21:34:04.112Z,99985.41
2023-02-19T21:38:03.694Z,99992.30
2023-02-19T21:42:05.565Z,99996.59
2023-02-19T21:46:03.836Z,100002.05
2023-02-19T21:50:06.550Z,100004.69
2023-02-19T21:54:04.630Z,100019.91
2023-02-19T21:58:06.619Z,100039.22
2023-02-19T22:02:04.677Z,100027.41
2023-02-19T22:06:07.068Z,100033.55
2023-02-19T22:10:01.682Z,100029.89
2023-02-19T22:13:55.303Z,100038.02
2023-02-19T22:17:47.587Z,100030.09
2023-02-19T22:21:40.868Z,100036.17
2023-02-19T22:25:35.449Z,100035.89
2023-02-19T22:29:29.072Z,100039.27
2023-02-19T22:33:20.467Z,100041.77
2023-02-19T22:37:13.879Z,100047.98
2023-02-19T22:41:05.616Z,100048.54
2023-02-19T22:44:59.972Z,100052.48
2023-02-19T22:48:51.895Z,100059.59
2023-02-19T22:52:45.344Z,100061.97
2023-02-19T22:56:37.809Z,100067.05
2023-02-19T23:00:31.180Z,100061.73
2023-02-19T23:04:25.692Z,100068.27
2023-02-19T23:08:19.490Z,100068.92
2023-02-19T23:12:16.590Z,100067.27
2023-02-19T23:16:10.488Z,100071.98
2023-02-19T23:20:03.027Z,100069.84
2023-02-19T23:23:56.783Z,100066.92
2023-02-19T23:27:29.799Z,100072.55
2023-02-19T23:31:21.870Z,100067.77
2023-02-19T23:35:15.502Z,100070.72
2023-02-19T23:38:48.705Z,100072.11
2023-02-19T23:42:40.590Z,100070.25
2023-02-19T23:46:35.023Z,100076.34
2023-02-19T23:50:27.689Z,100081.80
2023-02-19T23:54:21.191Z,100073.21
2023-02-19T23:58:12.871Z,100074.17
